createdAt,value
2018-09-08T00:00:59.482Z,3.67
2018-09-08T00:03:27.454Z,4.30
2018-09-08T00:05:55.358Z,4.30
2018-09-08T00:08:22.870Z,5.70
2018-09-08T00:10:50.755Z,5.33
2018-09-08T00:13:18.684Z,7.47
2018-09-08T00:15:52.012Z,3.80
2018-09-08T00:18:25.310Z,4.10
2018-09-08T00:20:58.639Z,6.23
2018-09-08T00:23:32.027Z,7.30
2018-09-08T00:26:06.719Z,4.30
2018-09-08T00:28:38.784Z,3.50
2018-09-08T00:31:09.494Z,4.60
2018-09-08T00:33:36.991Z,6.30
2018-09-08T00:36:04.636Z,5.57
2018-09-08T00:38:32.534Z,4.50
2018-09-08T00:41:00.005Z,5.20
2018-09-08T00:43:28.334Z,7.37
2018-09-08T00:45:55.968Z,20.20
2018-09-08T00:48:24.070Z,11.40
2018-09-08T00:50:51.587Z,48.63
2018-09-08T00:53:19.515Z,37.70
2018-09-08T00:55:47.006Z,28.40
2018-09-08T00:58:14.525Z,24.53
2018-09-08T01:00:42.085Z,22.43
2018-09-08T01:03:10.249Z,14.00
2018-09-08T01:05:38.379Z,54.60
2018-09-08T01:08:05.963Z,24.37
2018-09-08T01:10:34.370Z,12.73
2018-09-08T01:13:02.486Z,34.70
2018-09-08T01:15:30.574Z,11.93
2018-09-08T01:17:58.261Z,13.70
2018-09-08T01:20:25.787Z,10.03
2018-09-08T01:22:53.382Z,22.63
2018-09-08T01:25:21.277Z,9.33
2018-09-08T01:27:48.836Z,9.00
2018-09-08T01:30:16.422Z,7.60
2018-09-08T01:32:44.582Z,7.43
2018-09-08T01:35:13.103Z,9.63
2018-09-08T01:37:41.359Z,12.13
2018-09-08T01:40:09.486Z,23.03
2018-09-08T01:42:37.635Z,17.10
2018-09-08T01:45:06.646Z,11.97
2018-09-08T01:47:34.932Z,8.07
2018-09-08T01:50:03.220Z,17.30
2018-09-08T01:52:31.318Z,14.50
2018-09-08T01:54:58.844Z,20.90
2018-09-08T01:57:26.354Z,16.20
2018-09-08T01:59:54.011Z,11.17
2018-09-08T02:02:21.595Z,13.17
2018-09-08T02:04:49.523Z,11.80
2018-09-08T02:07:17.047Z,15.00
2018-09-08T02:09:44.988Z,14.70
2018-09-08T02:12:12.814Z,13.60
2018-09-08T02:14:40.358Z,16.20
2018-09-08T02:17:07.894Z,14.00
2018-09-08T02:19:35.517Z,14.83
2018-09-08T02:22:03.110Z,9.00
2018-09-08T02:24:30.787Z,10.07
2018-09-08T02:26:59.306Z,19.23
2018-09-08T02:29:26.877Z,8.60
2018-09-08T02:31:56.363Z,8.03
2018-09-08T02:34:23.975Z,7.37
2018-09-08T02:36:52.108Z,9.93
2018-09-08T02:39:19.886Z,8.10
2018-09-08T02:41:47.405Z,6.03
2018-09-08T02:44:15.323Z,10.00
2018-09-08T02:46:42.864Z,7.40
2018-09-08T02:49:11.001Z,8.70
2018-09-08T02:51:37.451Z,11.10
2018-09-08T02:54:03.910Z,15.13
2018-09-08T02:56:30.399Z,14.70
2018-09-08T02:58:56.843Z,12.27
2018-09-08T03:01:23.950Z,13.70
2018-09-08T03:03:51.166Z,14.40
2018-09-08T03:06:18.271Z,9.30
2018-09-08T03:08:44.741Z,7.63
2018-09-08T03:11:11.533Z,20.17
2018-09-08T03:13:38.045Z,12.50
2018-09-08T03:16:04.507Z,13.37
2018-09-08T03:18:30.979Z,9.37
2018-09-08T03:20:57.502Z,8.47
2018-09-08T03:23:24.011Z,8.13
2018-09-08T03:25:50.805Z,12.80
2018-09-08T03:28:17.284Z,15.93
2018-09-08T03:30:44.420Z,16.53
2018-09-08T03:33:10.875Z,13.73
2018-09-08T03:35:37.334Z,11.73
2018-09-08T03:38:05.140Z,9.20
2018-09-08T03:40:31.595Z,10.80
2018-09-08T03:42:58.647Z,14.57
2018-09-08T03:45:25.102Z,9.90
2018-09-08T03:47:51.966Z,8.63
2018-09-08T03:50:18.427Z,13.77
2018-09-08T03:52:44.873Z,10.97
2018-09-08T03:55:12.878Z,12.20
2018-09-08T03:57:39.339Z,9.37
2018-09-08T04:00:05.796Z,6.27
2018-09-08T04:02:32.265Z,6.10
2018-09-08T04:05:00.310Z,13.43
2018-09-08T04:07:27.804Z,7.80
2018-09-08T04:09:55.299Z,8.10
2018-09-08T04:12:23.958Z,7.80
2018-09-08T04:14:51.566Z,9.07
2018-09-08T04:17:19.099Z,7.83
2018-09-08T04:19:46.691Z,7.17
2018-09-08T04:22:14.155Z,10.57
2018-09-08T04:24:41.814Z,8.80
2018-09-08T04:27:09.642Z,7.00
2018-09-08T04:29:37.313Z,7.67
2018-09-08T04:32:04.683Z,11.30
2018-09-08T04:34:32.222Z,7.80
2018-09-08T04:37:00.406Z,9.30
2018-09-08T04:39:28.319Z,13.10
2018-09-08T04:41:55.822Z,9.70
2018-09-08T04:44:24.318Z,7.13
2018-09-08T04:46:51.820Z,7.00
2018-09-08T04:49:19.321Z,10.13
2018-09-08T04:51:46.846Z,9.90
2018-09-08T04:54:14.351Z,8.77
2018-09-08T04:56:41.995Z,7.30
2018-09-08T04:59:10.243Z,7.63
2018-09-08T05:01:38.391Z,10.40
2018-09-08T05:04:06.165Z,11.03
2018-09-08T05:06:34.139Z,9.33
2018-09-08T05:09:01.684Z,8.77
2018-09-08T05:11:29.541Z,9.10
2018-09-08T05:13:57.052Z,9.50
2018-09-08T05:16:25.317Z,9.80
2018-09-08T05:18:52.819Z,8.97
2018-09-08T05:21:20.383Z,5.63
2018-09-08T05:23:47.909Z,6.27
2018-09-08T05:26:16.044Z,8.40
2018-09-08T05:28:43.591Z,6.50
2018-09-08T05:31:11.099Z,6.00
2018-09-08T05:33:38.623Z,9.00
2018-09-08T05:36:07.079Z,7.20
2018-09-08T05:38:34.974Z,6.57
2018-09-08T05:41:03.044Z,11.47
2018-09-08T05:43:32.647Z,7.03
2018-09-08T05:46:00.186Z,5.40
2018-09-08T05:48:27.711Z,5.40
2018-09-08T05:50:55.237Z,5.03
2018-09-08T05:53:22.764Z,6.80
2018-09-08T05:55:51.015Z,8.60
2018-09-08T05:58:19.139Z,7.13
2018-09-08T06:00:46.638Z,8.67
2018-09-08T06:03:14.699Z,6.60
2018-09-08T06:05:42.590Z,7.57
2018-09-08T06:08:10.135Z,7.40
2018-09-08T06:10:38.055Z,7.43
2018-09-08T06:13:06.015Z,5.90
2018-09-08T06:15:33.508Z,6.37
2018-09-08T06:18:01.029Z,6.93
2018-09-08T06:20:28.579Z,8.93
2018-09-08T06:22:56.967Z,11.07
2018-09-08T06:25:25.588Z,9.17
2018-09-08T06:27:53.343Z,10.50
2018-09-08T06:30:20.876Z,9.87
2018-09-08T06:32:49.733Z,10.13
2018-09-08T06:35:17.715Z,13.70
2018-09-08T06:37:45.699Z,18.00
2018-09-08T06:40:13.635Z,20.47
2018-09-08T06:42:41.693Z,19.17
2018-09-08T06:45:09.369Z,19.03
2018-09-08T06:47:37.902Z,22.87
2018-09-08T06:50:05.500Z,19.83
2018-09-08T06:52:33.088Z,21.53
2018-09-08T06:55:01.099Z,25.20
2018-09-08T06:57:29.348Z,23.10
2018-09-08T06:59:57.334Z,19.27
2018-09-08T07:02:25.236Z,24.17
2018-09-08T07:04:53.308Z,24.93
2018-09-08T07:07:20.862Z,19.23
2018-09-08T07:09:48.413Z,22.80
2018-09-08T07:12:16.941Z,22.73
2018-09-08T07:14:44.495Z,25.97
2018-09-08T07:17:12.529Z,22.43
2018-09-08T07:19:41.236Z,21.17
2018-09-08T07:22:08.820Z,23.47
2018-09-08T07:24:36.375Z,20.40
2018-09-08T07:27:04.699Z,19.77
2018-09-08T07:29:32.202Z,25.50
2018-09-08T07:32:00.718Z,20.53
2018-09-08T07:34:28.540Z,22.83
2018-09-08T07:36:56.651Z,27.10
2018-09-08T07:39:24.577Z,23.73
2018-09-08T07:41:52.121Z,25.10
2018-09-08T07:44:20.815Z,26.93
2018-09-08T07:46:48.378Z,24.63
2018-09-08T07:49:16.892Z,25.30
2018-09-08T07:51:44.583Z,21.77
2018-09-08T07:54:12.588Z,26.27
2018-09-08T07:56:40.251Z,20.37
2018-09-08T07:59:07.854Z,23.40
2018-09-08T08:01:35.403Z,21.67
2018-09-08T08:04:03.580Z,18.20
2018-09-08T08:06:31.473Z,18.10
2018-09-08T08:08:59.492Z,23.43
2018-09-08T08:11:27.959Z,18.20
2018-09-08T08:13:55.563Z,17.43
2018-09-08T08:16:23.464Z,18.07
2018-09-08T08:18:51.413Z,18.90
2018-09-08T08:21:19.406Z,19.00
2018-09-08T08:23:46.968Z,16.50
2018-09-08T08:26:15.107Z,24.80
2018-09-08T08:28:42.642Z,21.40
2018-09-08T08:31:10.936Z,21.13
2018-09-08T08:33:38.455Z,22.30
2018-09-08T08:36:06.498Z,23.73
2018-09-08T08:38:34.471Z,19.57
2018-09-08T08:41:02.009Z,20.13
2018-09-08T08:43:31.349Z,19.60
2018-09-08T08:45:58.867Z,18.47
2018-09-08T08:48:26.593Z,17.13
2018-09-08T08:51:05.883Z,18.60
2018-09-08T08:53:44.854Z,22.63
2018-09-08T08:56:13.381Z,16.73
2018-09-08T08:58:40.918Z,17.90
2018-09-08T09:01:09.869Z,17.13
2018-09-08T09:03:37.787Z,15.13
2018-09-08T09:06:06.527Z,18.10
2018-09-08T09:08:34.631Z,14.37
2018-09-08T09:11:02.188Z,15.23
2018-09-08T09:13:30.115Z,14.57
2018-09-08T09:15:59.123Z,14.03
2018-09-08T09:18:38.840Z,10.07
2018-09-08T09:21:17.398Z,14.60
2018-09-08T09:24:59.017Z,11.37
2018-09-08T09:27:27.952Z,11.63
2018-09-08T09:29:55.876Z,15.00
2018-09-08T09:32:23.807Z,10.83
2018-09-08T09:34:51.393Z,11.10
2018-09-08T09:37:19.835Z,10.00
2018-09-08T09:39:48.095Z,7.80
2018-09-08T09:42:16.215Z,11.13
2018-09-08T09:44:43.731Z,13.23
2018-09-08T09:47:12.600Z,11.47
2018-09-08T09:49:40.429Z,11.97
2018-09-08T09:52:08.654Z,10.30
2018-09-08T09:54:36.850Z,11.20
2018-09-08T09:57:04.860Z,10.50
2018-09-08T09:59:32.429Z,10.47
2018-09-08T10:03:06.310Z,9.77
2018-09-08T10:05:35.715Z,9.27
2018-09-08T10:08:03.427Z,10.33
2018-09-08T10:10:31.563Z,9.70
2018-09-08T10:13:00.491Z,10.23
2018-09-08T10:15:28.099Z,9.83
2018-09-08T10:17:55.719Z,9.17
2018-09-08T10:20:23.704Z,9.90
2018-09-08T10:22:51.292Z,9.37
2018-09-08T10:25:20.026Z,8.17
2018-09-08T10:27:48.137Z,9.47
2018-09-08T10:30:16.566Z,8.30
2018-09-08T10:32:46.113Z,9.70
2018-09-08T10:35:14.663Z,11.03
2018-09-08T10:37:42.670Z,8.70
2018-09-08T10:40:12.263Z,8.40
2018-09-08T10:42:40.071Z,8.40
2018-09-08T10:45:08.173Z,7.80
2018-09-08T10:47:37.491Z,9.13
2018-09-08T10:50:06.215Z,6.83
2018-09-08T10:52:42.084Z,7.90
2018-09-08T10:55:10.031Z,10.37
2018-09-08T10:57:37.551Z,9.60
2018-09-08T11:00:06.502Z,8.07
2018-09-08T11:02:34.179Z,7.70
2018-09-08T11:05:02.761Z,9.20
2018-09-08T11:07:31.267Z,8.57
2018-09-08T11:09:59.042Z,8.70
2018-09-08T11:12:26.872Z,8.73
2018-09-08T11:14:54.836Z,9.33
2018-09-08T11:17:22.804Z,13.03
2018-09-08T11:19:50.333Z,13.50
2018-09-08T11:22:18.356Z,8.10
2018-09-08T11:24:45.869Z,11.17
2018-09-08T11:27:14.167Z,8.30
2018-09-08T11:29:41.744Z,9.53
2018-09-08T11:32:09.660Z,8.23
2018-09-08T11:34:37.167Z,13.33
2018-09-08T11:37:05.180Z,9.77
2018-09-08T11:39:33.084Z,9.27
2018-09-08T11:42:00.605Z,8.73
2018-09-08T11:44:28.776Z,7.90
2018-09-08T11:46:56.300Z,9.90
2018-09-08T11:49:23.838Z,7.97
2018-09-08T11:51:51.442Z,8.53
2018-09-08T11:54:18.967Z,8.47
2018-09-08T11:56:46.558Z,11.90
2018-09-08T11:59:14.139Z,11.20
2018-09-08T12:01:41.676Z,8.03
2018-09-08T12:04:09.820Z,9.10
2018-09-08T12:06:37.788Z,8.33
2018-09-08T12:09:07.912Z,8.93
2018-09-08T12:11:36.057Z,11.20
2018-09-08T12:14:03.657Z,11.10
2018-09-08T12:16:31.944Z,10.67
2018-09-08T12:18:59.629Z,8.97
2018-09-08T12:21:27.470Z,7.33
2018-09-08T12:23:55.037Z,7.37
2018-09-08T12:26:23.211Z,14.00
2018-09-08T12:28:50.728Z,10.80
2018-09-08T12:31:18.220Z,8.80
2018-09-08T12:33:45.787Z,9.40
2018-09-08T12:36:13.977Z,8.73
2018-09-08T12:38:43.145Z,7.70
2018-09-08T12:41:10.939Z,7.73
2018-09-08T12:43:38.875Z,8.23
2018-09-08T12:46:06.400Z,7.97
2018-09-08T12:48:34.012Z,8.43
2018-09-08T12:51:01.567Z,8.17
2018-09-08T12:53:29.806Z,8.97
2018-09-08T12:55:57.331Z,7.50
2018-09-08T12:58:24.882Z,9.00
2018-09-08T13:00:52.422Z,6.63
2018-09-08T13:03:20.617Z,8.20
2018-09-08T13:05:48.604Z,7.30
2018-09-08T13:08:16.121Z,8.23
2018-09-08T13:10:43.998Z,8.23
2018-09-08T13:13:12.144Z,8.47
2018-09-08T13:15:39.631Z,12.53
2018-09-08T13:18:07.708Z,8.10
2018-09-08T13:20:35.216Z,6.80
2018-09-08T13:23:03.347Z,7.27
2018-09-08T13:25:30.863Z,6.70
2018-09-08T13:27:58.427Z,8.80
2018-09-08T13:30:25.997Z,6.20
2018-09-08T13:32:53.804Z,8.30
2018-09-08T13:35:21.304Z,6.43
2018-09-08T13:37:49.308Z,5.50
2018-09-08T13:40:17.243Z,6.90
2018-09-08T13:42:45.080Z,6.13
2018-09-08T13:45:12.993Z,15.83
2018-09-08T13:47:40.500Z,5.70
2018-09-08T13:50:08.022Z,6.57
2018-09-08T13:52:35.550Z,5.93
2018-09-08T13:55:03.155Z,7.93
2018-09-08T13:57:30.750Z,7.37
2018-09-08T13:59:58.295Z,5.10
2018-09-08T14:02:26.213Z,6.47
2018-09-08T14:04:54.451Z,6.37
2018-09-08T14:07:21.985Z,6.00
2018-09-08T14:09:49.484Z,5.43
2018-09-08T14:12:17.564Z,5.10
2018-09-08T14:14:45.466Z,6.47
2018-09-08T14:17:12.981Z,6.40
2018-09-08T14:19:41.524Z,7.07
2018-09-08T14:22:09.053Z,5.30
2018-09-08T14:24:36.564Z,6.63
2018-09-08T14:27:04.091Z,5.07
2018-09-08T14:29:31.588Z,4.73
2018-09-08T14:31:59.187Z,5.90
2018-09-08T14:34:26.724Z,5.27
2018-09-08T14:36:54.778Z,6.20
2018-09-08T14:39:22.994Z,4.50
2018-09-08T14:41:50.523Z,4.67
2018-09-08T14:44:18.922Z,5.00
2018-09-08T14:46:46.803Z,4.73
2018-09-08T14:49:14.323Z,5.60
2018-09-08T14:51:41.805Z,4.67
2018-09-08T14:54:09.343Z,4.40
2018-09-08T14:56:36.905Z,4.40
2018-09-08T14:59:06.019Z,4.70
2018-09-08T15:01:33.892Z,4.20
2018-09-08T15:04:01.783Z,4.60
2018-09-08T15:06:29.655Z,6.40
2018-09-08T15:08:57.518Z,4.43
2018-09-08T15:11:25.362Z,3.93
2018-09-08T15:13:53.233Z,4.10
2018-09-08T15:16:21.054Z,6.07
2018-09-08T15:18:49.135Z,3.83
2018-09-08T15:21:16.631Z,4.10
2018-09-08T15:23:44.147Z,4.10
2018-09-08T15:26:11.726Z,4.33
2018-09-08T15:28:39.218Z,4.50
2018-09-08T15:31:06.838Z,3.90
2018-09-08T15:33:35.015Z,4.50
2018-09-08T15:36:03.070Z,4.20
2018-09-08T15:38:30.904Z,3.70
2018-09-08T15:40:58.726Z,3.83
2018-09-08T15:43:26.583Z,5.90
2018-09-08T15:45:54.510Z,4.20
2018-09-08T15:48:22.617Z,3.90
2018-09-08T15:50:50.132Z,5.20
2018-09-08T15:53:17.655Z,5.00
2018-09-08T15:55:45.183Z,5.80
2018-09-08T15:58:13.527Z,5.43
2018-09-08T16:00:41.052Z,4.40
2018-09-08T16:03:09.467Z,11.43
2018-09-08T16:05:37.540Z,9.80
2018-09-08T16:08:05.724Z,10.63
2018-09-08T16:10:35.723Z,5.90
2018-09-08T16:13:03.963Z,5.93
2018-09-08T16:15:32.151Z,6.37
2018-09-08T16:17:59.700Z,3.90
2018-09-08T16:20:27.588Z,7.83
2018-09-08T16:22:55.302Z,11.80
2018-09-08T16:25:23.575Z,5.27
2018-09-08T16:27:51.148Z,5.90
2018-09-08T16:30:18.664Z,6.23
2018-09-08T16:32:46.750Z,5.00
2018-09-08T16:35:14.260Z,4.77
2018-09-08T16:37:42.323Z,4.87
2018-09-08T16:40:10.197Z,4.70
2018-09-08T16:42:38.819Z,4.23
2018-09-08T16:45:07.111Z,5.70
2018-09-08T16:47:35.371Z,5.70
2018-09-08T16:50:02.930Z,4.67
2018-09-08T16:52:30.541Z,6.07
2018-09-08T16:54:58.613Z,4.43
2018-09-08T16:57:27.451Z,6.20
2018-09-08T16:59:54.986Z,7.43
2018-09-08T17:02:23.626Z,4.90
2018-09-08T17:04:51.641Z,4.63
2018-09-08T17:07:19.145Z,8.33
2018-09-08T17:09:47.123Z,8.10
2018-09-08T17:12:15.435Z,4.53
2018-09-08T17:14:43.883Z,4.13
2018-09-08T17:17:11.393Z,4.60
2018-09-08T17:19:38.903Z,6.00
2018-09-08T17:22:06.466Z,5.83
2018-09-08T17:24:34.447Z,3.90
2018-09-08T17:27:01.983Z,4.27
2018-09-08T17:29:30.060Z,5.00
2018-09-08T17:31:57.588Z,5.47
2018-09-08T17:34:25.107Z,4.53
2018-09-08T17:36:52.999Z,5.20
2018-09-08T17:39:20.929Z,4.80
2018-09-08T17:41:48.844Z,4.30
2018-09-08T17:44:16.777Z,6.20
2018-09-08T17:46:44.673Z,4.50
2018-09-08T17:49:12.238Z,5.93
2018-09-08T17:51:39.766Z,3.33
2018-09-08T17:54:07.700Z,3.83
2018-09-08T17:56:35.199Z,5.03
2018-09-08T17:59:02.841Z,3.77
2018-09-08T18:01:30.402Z,5.33
2018-09-08T18:03:58.600Z,5.23
2018-09-08T18:06:26.727Z,5.40
2018-09-08T18:08:54.693Z,10.07
2018-09-08T18:11:22.572Z,4.90
2018-09-08T18:13:50.860Z,4.87
2018-09-08T18:16:18.443Z,4.33
2018-09-08T18:18:46.307Z,5.67
2018-09-08T18:21:14.108Z,4.00
2018-09-08T18:23:42.855Z,6.30
2018-09-08T18:26:10.487Z,7.90
2018-09-08T18:28:38.391Z,8.70
2018-09-08T18:31:05.935Z,5.30
2018-09-08T18:33:33.476Z,7.63
2018-09-08T18:36:01.676Z,4.03
2018-09-08T18:38:29.979Z,7.97
2018-09-08T18:40:58.164Z,5.33
2018-09-08T18:43:25.804Z,8.47
2018-09-08T18:45:53.324Z,9.83
2018-09-08T18:48:21.877Z,8.10
2018-09-08T18:50:49.373Z,6.50
2018-09-08T18:53:17.915Z,4.90
2018-09-08T18:55:45.519Z,4.50
2018-09-08T18:58:13.039Z,4.80
2018-09-08T19:00:40.588Z,5.43
2018-09-08T19:03:08.521Z,6.00
2018-09-08T19:05:36.558Z,7.03
2018-09-08T19:08:04.526Z,6.80
2018-09-08T19:10:33.625Z,4.20
2018-09-08T19:13:02.475Z,5.07
2018-09-08T19:15:30.423Z,5.20
2018-09-08T19:17:57.954Z,5.00
2018-09-08T19:20:31.162Z,6.20
2018-09-08T19:22:59.275Z,5.70
2018-09-08T19:25:27.244Z,5.80
2018-09-08T19:27:55.536Z,5.53
2018-09-08T19:30:23.268Z,5.20
2018-09-08T19:32:50.829Z,6.00
2018-09-08T19:35:24.235Z,4.30
2018-09-08T19:37:52.255Z,5.07
2018-09-08T19:40:26.160Z,4.23
2018-09-08T19:42:54.367Z,5.27
2018-09-08T19:45:22.450Z,3.67
2018-09-08T19:47:56.002Z,6.20
2018-09-08T19:50:24.238Z,5.83
2018-09-08T19:52:57.580Z,9.40
2018-09-08T19:55:25.259Z,8.97
2018-09-08T19:57:58.297Z,8.10
2018-09-08T20:00:26.623Z,4.53
2018-09-08T20:02:55.870Z,6.87
2018-09-08T20:05:24.588Z,7.03
2018-09-08T20:07:52.332Z,9.53
2018-09-08T20:10:20.219Z,7.53
2018-09-08T20:12:48.334Z,9.73
2018-09-08T20:15:16.576Z,8.73
2018-09-08T20:17:44.111Z,12.80
2018-09-08T20:20:11.635Z,13.97
2018-09-08T20:22:39.995Z,10.27
2018-09-08T20:25:07.511Z,8.87
2018-09-08T20:27:35.228Z,11.43
2018-09-08T20:30:03.084Z,17.03
2018-09-08T20:32:30.617Z,8.10
2018-09-08T20:34:58.252Z,6.97
2018-09-08T20:37:26.293Z,8.70
2018-09-08T20:39:54.695Z,11.73
2018-09-08T20:42:22.910Z,9.90
2018-09-08T20:44:50.422Z,12.30
2018-09-08T20:47:19.102Z,9.70
2018-09-08T20:49:46.630Z,6.57
2018-09-08T20:52:14.498Z,11.83
2018-09-08T20:54:42.100Z,10.00
2018-09-08T20:57:09.806Z,14.77
2018-09-08T20:59:37.838Z,39.10
2018-09-08T21:02:06.044Z,30.40
2018-09-08T21:04:34.303Z,24.33
2018-09-08T21:07:02.182Z,24.03
2018-09-08T21:09:30.985Z,15.47
2018-09-08T21:11:59.630Z,10.90
2018-09-08T21:14:27.491Z,6.57
2018-09-08T21:16:55.336Z,8.13
2018-09-08T21:19:23.171Z,7.30
2018-09-08T21:21:52.122Z,4.80
2018-09-08T21:24:20.324Z,8.37
2018-09-08T21:26:47.820Z,8.33
2018-09-08T21:29:15.353Z,6.07
2018-09-08T21:31:42.919Z,6.83
2018-09-08T21:34:10.454Z,7.30
2018-09-08T21:36:38.565Z,15.83
2018-09-08T21:39:07.983Z,15.97
2018-09-08T21:41:36.107Z,9.33
2018-09-08T21:44:04.463Z,7.47
2018-09-08T21:46:33.550Z,8.53
2018-09-08T21:49:01.088Z,7.77
2018-09-08T21:51:28.590Z,6.13
2018-09-08T21:53:56.183Z,7.47
2018-09-08T21:56:24.255Z,5.63
2018-09-08T21:58:51.789Z,5.40
2018-09-08T22:01:24.742Z,6.03
2018-09-08T22:03:53.422Z,5.70
2018-09-08T22:06:22.371Z,5.00
2018-09-08T22:08:49.870Z,8.40
2018-09-08T22:11:17.777Z,8.20
2018-09-08T22:13:45.695Z,12.93
2018-09-08T22:16:13.239Z,15.33
2018-09-08T22:18:41.393Z,9.27
2018-09-08T22:21:08.924Z,7.43
2018-09-08T22:23:36.969Z,13.43
2018-09-08T22:26:04.697Z,7.50
2018-09-08T22:28:32.217Z,8.70
2018-09-08T22:31:01.475Z,8.70
2018-09-08T22:33:29.008Z,7.70
2018-09-08T22:35:56.775Z,10.57
2018-09-08T22:38:25.355Z,9.23
2018-09-08T22:40:53.271Z,10.60
2018-09-08T22:43:21.095Z,10.47
2018-09-08T22:45:48.695Z,6.47
2018-09-08T22:48:16.226Z,7.10
2018-09-08T22:50:43.789Z,9.37
2018-09-08T22:53:11.955Z,9.50
2018-09-08T22:55:39.478Z,12.30
2018-09-08T22:58:08.462Z,10.50
2018-09-08T23:00:36.765Z,7.00
2018-09-08T23:03:05.124Z,5.83
2018-09-08T23:05:32.990Z,7.73
2018-09-08T23:14:48.038Z,6.80
2018-09-08T23:17:15.886Z,4.70
2018-09-08T23:19:43.390Z,5.50
2018-09-08T23:22:10.886Z,7.53
2018-09-08T23:24:38.398Z,6.03
2018-09-08T23:27:06.452Z,7.80
2018-09-08T23:29:34.052Z,5.63
2018-09-08T23:32:02.244Z,5.90
2018-09-08T23:34:29.793Z,8.13
2018-09-08T23:36:58.638Z,9.93
2018-09-08T23:39:26.854Z,9.00
2018-09-08T23:41:54.348Z,9.00
2018-09-08T23:44:22.366Z,8.23
2018-09-08T23:46:49.883Z,11.43
2018-09-08T23:49:17.403Z,7.40
2018-09-08T23:51:45.255Z,5.80
2018-09-08T23:54:12.765Z,5.30
2018-09-08T23:56:40.637Z,5.07
2018-09-08T23:59:08.156Z,9.00
